Hampton Beach, New Hampshire
Current Conditions -  °F | °C
As of 11:58 AM on Saturday 25 Oct 2014 (Local Time) from KPSM Reporting Station
Scattered Clouds Scattered Clouds  
Wind Chill: 16°   Ceiling: Unl
Heat Index: 16°   Visibility: 10mi
Dew Point:   Wind: 12mph
Humidity: 48%   Direction: 260°W
Pressure: 29.65"   Gusts: NA
Location:  42.9284°N, 70.8566°W
Report Text: KPSM 251558Z 26010KT 10SM FEW090 SCT250 16/05 A2965 RMK AO2A SLP044 T01620051
Loading
Personal Weather Stations






























Interactive Weather Map
Tropical Storm Tracking
New forecast layout! Learn more

10-Day Weather Forecast

Advertisements
Track Severe Weather on mobile